Time;durP1;ratioP1;P1;durP2;ratioP2;P2;SDS_P1;SDS_P2;PMS_P1;PMS_P2;Temp;Humidity;BMP_temperature;BMP_pressure;BME280_temperature;BME280_humidity;BME280_pressure;Samples;Min_cycle;Max_cycle;Signal;HPM_P1;HPM_P2
2023/12/29 00:00:20;;;;;;;;;18.00;15.75;;;;;-143.90;100.00;75680.84;4885504;28;102319;-74
2023/12/29 00:02:48;;;;;;;;;17.00;14.50;;;;;-143.90;100.00;75680.84;4887572;28;102675;-74
2023/12/29 00:05:15;;;;;;;;;18.00;17.00;;;;;-143.90;100.00;75682.91;4875966;28;103998;-74
2023/12/29 00:07:41;;;;;;;;;17.00;14.75;;;;;-143.90;100.00;75676.69;4886803;28;102368;-74
2023/12/29 00:10:08;;;;;;;;;18.00;14.00;;;;;-143.90;100.00;75670.50;4887738;28;105431;-74
2023/12/29 00:12:36;;;;;;;;;22.25;15.00;;;;;-143.90;100.00;75676.69;4886827;28;102462;-75
2023/12/29 00:15:03;;;;;;;;;19.50;16.75;;;;;-143.90;100.00;75670.50;4872458;28;104088;-75
2023/12/29 00:17:30;;;;;;;;;24.00;20.50;;;;;-143.90;100.00;75680.84;4885064;28;103758;-74
2023/12/29 00:19:56;;;;;;;;;23.25;21.00;;;;;-143.90;100.00;75664.28;4884680;28;102335;-74
2023/12/29 00:22:25;;;;;;;;;24.25;18.25;;;;;-143.90;100.00;75668.44;4885245;28;102682;-74
2023/12/29 00:24:51;;;;;;;;;17.00;14.25;;;;;-143.90;100.00;75668.44;4882368;28;104471;-74
2023/12/29 00:27:18;;;;;;;;;21.00;18.50;;;;;-143.90;100.00;75664.28;4884430;28;101873;-75
2023/12/29 00:29:45;;;;;;;;;15.50;14.50;;;;;-143.90;100.00;75653.94;4888051;28;102530;-75
2023/12/29 00:32:12;;;;;;;;;23.25;18.75;;;;;-143.90;100.00;75656.03;4886460;28;102495;-75
2023/12/29 00:34:39;;;;;;;;;19.25;18.25;;;;;-143.90;100.00;75660.16;4868312;28;104619;-76
2023/12/29 00:37:06;;;;;;;;;23.25;16.25;;;;;-143.90;100.00;75656.03;4870649;28;102679;-75
2023/12/29 00:39:38;;;;;;;;;11.25;10.50;;;;;-143.90;100.00;75645.69;4887282;28;102309;-74
2023/12/29 00:42:06;;;;;;;;;23.25;18.00;;;;;-143.90;100.00;75645.69;4882904;28;103300;-75
2023/12/29 00:44:33;;;;;;;;;17.75;17.00;;;;;-143.90;100.00;75647.75;4887222;28;104135;-74
2023/12/29 00:47:00;;;;;;;;;17.75;13.50;;;;;-143.90;99.92;75643.63;4873347;28;102823;-73
2023/12/29 00:49:27;;;;;;;;;14.25;12.00;;;;;-143.90;99.60;75639.47;4881705;28;104813;-73
2023/12/29 00:51:54;;;;;;;;;15.25;14.00;;;;;-143.90;99.61;75643.63;4883980;28;102500;-74
2023/12/29 00:54:21;;;;;;;;;14.25;14.00;;;;;-143.90;99.61;75639.47;4884778;28;103762;-74
2023/12/29 00:56:51;;;;;;;;;18.50;13.75;;;;;-143.90;99.78;75643.63;4882488;28;102111;-74
2023/12/29 00:59:19;;;;;;;;;16.25;13.00;;;;;-143.90;99.94;75653.94;4882231;28;102591;-73
2023/12/29 01:01:46;;;;;;;;;19.25;15.00;;;;;-143.90;100.00;75645.69;4882371;28;102386;-75
2023/12/29 01:04:13;;;;;;;;;14.50;13.75;;;;;-143.90;100.00;75656.03;4882920;28;103976;-75
2023/12/29 01:06:40;;;;;;;;;17.25;14.25;;;;;-143.90;100.00;75645.69;4883162;28;103004;-74
2023/12/29 01:09:11;;;;;;;;;19.00;19.00;;;;;-143.90;100.00;75656.03;4877199;28;101992;-76
2023/12/29 01:11:38;;;;;;;;;18.75;15.50;;;;;-143.90;100.00;75651.88;4881953;28;102448;-76
2023/12/29 01:14:05;;;;;;;;;20.75;17.50;;;;;-143.90;100.00;75651.88;4885063;28;107172;-74
2023/12/29 01:16:32;;;;;;;;;14.25;13.00;;;;;-143.90;100.00;75643.63;4883353;28;102477;-74
2023/12/29 01:18:59;;;;;;;;;17.75;14.00;;;;;-143.90;99.98;75643.63;4873749;28;102478;-74
2023/12/29 01:21:26;;;;;;;;;9.50;9.50;;;;;-143.90;99.52;75635.34;4887001;28;102369;-74
2023/12/29 01:23:53;;;;;;;;;19.25;14.00;;;;;-143.90;99.82;75643.63;4870173;28;104139;-73
2023/12/29 01:26:19;;;;;;;;;12.00;11.00;;;;;-143.90;99.96;75645.69;4899370;28;102937;-74
2023/12/29 01:28:46;;;;;;;;;13.00;12.00;;;;;-143.90;100.00;75645.69;4880867;28;102060;-74
2023/12/29 01:31:13;;;;;;;;;12.25;11.50;;;;;-143.90;100.00;75635.34;4880284;28;104863;-74
2023/12/29 01:33:40;;;;;;;;;14.00;12.75;;;;;-143.90;100.00;75635.34;4882688;28;104329;-74
2023/12/29 01:36:07;;;;;;;;;10.00;9.00;;;;;-143.90;100.00;75627.06;4868920;28;101904;-75
2023/12/29 01:38:43;;;;;;;;;14.75;13.75;;;;;-143.90;100.00;75627.06;4879534;28;102503;-74
2023/12/29 01:41:09;;;;;;;;;19.50;13.75;;;;;-143.90;100.00;75635.34;4873647;28;102726;-74
2023/12/29 01:43:56;;;;;;;;;14.25;12.00;;;;;-143.90;100.00;75643.63;4885806;28;104355;-74
2023/12/29 01:46:28;;;;;;;;;12.25;10.50;;;;;-143.90;100.00;75651.88;4881178;28;102676;-76
2023/12/29 01:48:57;;;;;;;;;8.75;8.75;;;;;-143.90;100.00;75658.09;4872599;28;102203;-73
2023/12/29 01:51:25;;;;;;;;;13.75;12.50;;;;;-143.90;100.00;75653.94;4899697;28;102528;-73
2023/12/29 01:53:55;;;;;;;;;16.25;12.25;;;;;-143.90;100.00;75658.09;4883055;28;104192;-73
2023/12/29 01:56:22;;;;;;;;;9.50;9.25;;;;;-143.90;100.00;75666.34;4866644;28;103586;-74
2023/12/29 01:58:49;;;;;;;;;13.75;11.25;;;;;-143.90;100.00;75670.50;4891525;28;102166;-74
2023/12/29 02:01:18;;;;;;;;;14.00;13.00;;;;;-143.90;100.00;75676.69;4878991;28;102077;-73
2023/12/29 02:03:45;;;;;;;;;11.50;10.50;;;;;-143.90;100.00;75672.56;4874441;28;103124;-74
2023/12/29 02:06:13;;;;;;;;;8.50;8.50;;;;;-143.90;100.00;75672.56;4885942;28;102242;-74
2023/12/29 02:08:43;;;;;;;;;10.00;9.00;;;;;-143.90;100.00;75676.69;4880833;28;102620;-75
2023/12/29 02:11:10;;;;;;;;;9.75;9.00;;;;;-143.90;100.00;75676.69;4876536;28;102653;-73
2023/12/29 02:13:37;;;;;;;;;10.25;10.25;;;;;-143.90;100.00;75672.56;4888100;28;108499;-75
2023/12/29 02:16:27;;;;;;;;;11.75;9.00;;;;;-143.90;100.00;75674.63;4882568;28;104692;-75
2023/12/29 02:18:57;;;;;;;;;7.50;7.00;;;;;-143.90;100.00;75684.97;4877897;28;102880;-75
2023/12/29 02:21:25;;;;;;;;;7.25;7.25;;;;;-143.90;100.00;75684.97;4868304;28;102066;-75
2023/12/29 02:23:52;;;;;;;;;6.50;5.00;;;;;-143.90;100.00;75693.25;4884957;28;104314;-75
2023/12/29 02:26:22;;;;;;;;;7.25;5.50;;;;;-143.90;100.00;75703.56;4886730;28;102722;-75
2023/12/29 02:29:01;;;;;;;;;6.00;6.00;;;;;-143.90;100.00;75703.56;4875335;28;104038;-74
2023/12/29 02:31:30;;;;;;;;;6.50;6.00;;;;;-143.90;100.00;75707.72;4879210;28;103226;-74
2023/12/29 02:34:00;;;;;;;;;6.25;5.00;;;;;-143.90;100.00;75709.78;4884051;28;103947;-74
2023/12/29 02:36:27;;;;;;;;;8.00;6.25;;;;;-143.90;100.00;75709.78;4883492;28;102314;-74
2023/12/29 02:38:54;;;;;;;;;5.25;5.00;;;;;-143.90;100.00;75713.91;4876875;28;101942;-74
2023/12/29 02:41:21;;;;;;;;;3.25;2.25;;;;;-143.90;100.00;75709.78;4883890;28;102207;-74
2023/12/29 02:43:48;;;;;;;;;6.00;5.00;;;;;-143.90;100.00;75711.84;4881892;28;104239;-74
2023/12/29 02:46:14;;;;;;;;;10.00;8.00;;;;;-143.90;100.00;75709.78;4882770;28;102066;-74
2023/12/29 02:48:41;;;;;;;;;9.00;7.00;;;;;-143.90;100.00;75709.78;4884649;28;102345;-74
2023/12/29 02:51:08;;;;;;;;;10.50;6.75;;;;;-143.90;100.00;75713.91;4883428;28;102593;-74
2023/12/29 02:53:35;;;;;;;;;7.75;7.25;;;;;-143.90;100.00;75718.06;4884004;28;104999;-74
2023/12/29 02:56:01;;;;;;;;;8.25;7.00;;;;;-143.90;100.00;75713.91;4887827;28;102374;-75
2023/12/29 02:58:28;;;;;;;;;4.50;4.00;;;;;-143.90;100.00;75705.66;4883999;28;102368;-76
2023/12/29 03:00:55;;;;;;;;;4.50;4.50;;;;;-143.90;100.00;75707.72;4880578;28;102460;-73
2023/12/29 03:03:21;;;;;;;;;7.00;6.00;;;;;-143.90;100.00;75713.91;4881985;28;104081;-73
2023/12/29 03:05:48;;;;;;;;;6.50;6.00;;;;;-143.90;100.00;75705.66;4886733;28;102279;-74
2023/12/29 03:08:15;;;;;;;;;9.00;8.00;;;;;-143.90;100.00;75701.50;4883880;28;102401;-74
2023/12/29 03:10:42;;;;;;;;;10.00;7.50;;;;;-143.90;100.00;75697.38;4869272;28;102545;-75
2023/12/29 03:13:08;;;;;;;;;10.00;8.50;;;;;-143.90;100.00;75687.03;4878647;28;104123;-76
2023/12/29 03:15:35;;;;;;;;;18.00;13.00;;;;;-143.90;100.00;75680.84;4885234;28;101950;-74
2023/12/29 03:18:02;;;;;;;;;12.75;11.25;;;;;-143.90;98.75;75666.34;4885729;28;102299;-75
2023/12/29 03:20:29;;;;;;;;;3.00;3.00;;;;;-143.90;98.32;75666.34;4864539;28;102569;-74
2023/12/29 03:22:57;;;;;;;;;12.50;9.00;;;;;-143.90;97.18;75664.28;4876395;28;104005;-74
2023/12/29 03:25:23;;;;;;;;;12.00;9.00;;;;;-143.90;95.76;75653.94;4880609;28;102514;-74
2023/12/29 03:27:50;;;;;;;;;11.50;10.00;;;;;-143.90;94.30;75647.75;4865894;28;102002;-73
2023/12/29 03:30:17;;;;;;;;;10.75;9.00;;;;;-143.90;93.58;75639.47;4890434;28;101921;-74
2023/12/29 03:32:43;;;;;;;;;10.00;9.00;;;;;-143.90;92.80;75647.75;4884757;28;104098;-73
2023/12/29 03:35:10;;;;;;;;;12.50;10.25;;;;;-143.90;92.09;75639.47;4861194;28;102116;-74
2023/12/29 03:37:38;;;;;;;;;10.00;8.25;;;;;-143.90;91.27;75639.47;4889726;28;102578;-74
2023/12/29 03:40:05;;;;;;;;;8.25;7.50;;;;;-143.90;89.12;75647.75;4886124;28;102377;-75
2023/12/29 03:42:32;;;;;;;;;14.00;9.00;;;;;-143.90;87.40;75631.22;4888182;28;104284;-74
2023/12/29 03:44:59;;;;;;;;;15.25;13.00;;;;;-143.90;86.36;75633.28;4874941;28;102799;-75
2023/12/29 03:47:25;;;;;;;;;15.75;13.00;;;;;-143.90;85.33;75633.28;4885773;28;102348;-74
2023/12/29 03:49:52;;;;;;;;;9.00;9.00;;;;;-143.90;84.50;75622.94;4887204;28;102385;-76
2023/12/29 03:52:19;;;;;;;;;13.00;12.00;;;;;-143.90;84.35;75627.06;4884060;28;104605;-76
2023/12/29 03:54:45;;;;;;;;;9.00;9.00;;;;;-143.90;84.55;75625.00;4883419;28;101989;-76
2023/12/29 03:57:13;;;;;;;;;11.00;8.50;;;;;-143.90;84.45;75625.00;4880341;28;102491;-76
2023/12/29 03:59:40;;;;;;;;;11.00;11.00;;;;;-143.90;83.92;75631.22;4888916;28;102115;-75
2023/12/29 04:02:06;;;;;;;;;8.25;7.00;;;;;-143.90;83.66;75631.22;4876498;28;110647;-75
2023/12/29 04:04:37;;;;;;;;;5.75;5.75;;;;;-143.90;83.29;75633.28;4888237;28;103384;-75
2023/12/29 04:07:04;;;;;;;;;7.50;7.00;;;;;-143.90;83.43;75637.41;4872987;28;102746;-75
2023/12/29 04:09:31;;;;;;;;;9.00;7.75;;;;;-143.90;83.09;75643.63;4886187;28;102406;-73
2023/12/29 04:11:57;;;;;;;;;7.75;7.50;;;;;-143.90;83.04;75631.22;4881939;28;104179;-75
2023/12/29 04:14:24;;;;;;;;;8.00;8.00;;;;;-143.90;83.13;75639.47;4887336;28;103149;-74
2023/12/29 04:16:51;;;;;;;;;12.00;11.00;;;;;-143.90;83.17;75649.81;4877112;28;102675;-74
2023/12/29 04:19:17;;;;;;;;;9.75;7.75;;;;;-143.90;83.33;75656.03;4883518;28;102488;-73
2023/12/29 04:21:44;;;;;;;;;5.00;4.00;;;;;-143.90;83.23;75656.03;4886952;28;103963;-74
2023/12/29 04:24:11;;;;;;;;;8.25;7.25;;;;;-143.90;83.47;75664.28;4869004;28;102500;-74
2023/12/29 04:26:38;;;;;;;;;9.00;9.00;;;;;-143.90;84.12;75672.56;4888694;28;102564;-74
2023/12/29 04:29:04;;;;;;;;;13.00;13.00;;;;;-143.90;84.36;75674.63;4879317;28;102486;-74
2023/12/29 04:31:31;;;;;;;;;15.50;12.50;;;;;-143.90;84.24;75672.56;4887266;28;104239;-74
2023/12/29 04:33:57;;;;;;;;;13.00;12.50;;;;;-143.90;83.54;75664.28;4885267;28;102491;-74
2023/12/29 04:36:24;;;;;;;;;15.75;12.50;;;;;-143.90;84.00;75676.69;4881985;28;102372;-74
2023/12/29 04:38:51;;;;;;;;;18.75;16.00;;;;;-143.90;83.54;75668.44;4883421;28;101927;-74
2023/12/29 04:41:18;;;;;;;;;18.25;12.75;;;;;-143.90;83.47;75658.09;4880791;28;103412;-74
2023/12/29 04:43:45;;;;;;;;;12.00;11.00;;;;;-143.90;83.34;75649.81;4887858;28;102359;-73
2023/12/29 04:46:11;;;;;;;;;12.75;11.25;;;;;-143.90;83.08;75647.75;4887903;28;102069;-74
2023/12/29 04:48:38;;;;;;;;;17.00;12.50;;;;;-143.90;82.84;75639.47;4888562;28;102391;-74
2023/12/29 04:51:05;;;;;;;;;12.50;11.25;;;;;-143.90;82.81;75635.34;4870112;28;104037;-73
2023/12/29 04:53:31;;;;;;;;;9.50;8.25;;;;;-143.90;82.55;75627.06;4889662;28;101984;-75
2023/12/29 04:55:58;;;;;;;;;6.75;6.00;;;;;-143.90;82.18;75618.81;4886054;28;102397;-74
2023/12/29 04:58:25;;;;;;;;;12.25;10.75;;;;;-143.90;82.27;75627.06;4885864;28;101975;-75
2023/12/29 05:00:51;;;;;;;;;13.50;11.75;;;;;-143.90;82.36;75620.88;4877969;28;104012;-74
2023/12/29 05:03:18;;;;;;;;;20.25;14.25;;;;;-143.90;82.38;75625.00;4882017;28;102287;-75
2023/12/29 05:05:45;;;;;;;;;21.25;13.50;;;;;-143.90;82.24;75631.22;4885808;28;102662;-75
2023/12/29 05:08:11;;;;;;;;;16.75;13.00;;;;;-143.90;82.39;75608.47;4867950;28;102531;-74
2023/12/29 05:10:38;;;;;;;;;19.50;13.75;;;;;-143.90;81.71;75591.94;4887279;28;108732;-74
2023/12/29 05:13:05;;;;;;;;;13.00;13.00;;;;;-143.90;81.46;75583.66;4880639;28;102593;-75
2023/12/29 05:15:31;;;;;;;;;11.75;11.25;;;;;-143.90;81.86;75583.66;4882974;28;102056;-74
2023/12/29 05:17:58;;;;;;;;;14.00;13.00;;;;;-143.90;82.13;75583.66;4883947;28;102458;-74
2023/12/29 05:20:25;;;;;;;;;16.00;13.00;;;;;-143.90;81.96;75573.31;4883195;28;103998;-74
2023/12/29 05:22:52;;;;;;;;;19.25;17.50;;;;;-143.90;81.77;75567.13;4873269;28;102269;-74
2023/12/29 05:25:21;;;;;;;;;13.25;10.00;;;;;-143.90;81.56;75565.03;4862024;28;102280;-74
2023/12/29 05:27:48;;;;;;;;;17.00;14.25;;;;;-143.90;81.87;75548.50;4880018;28;102651;-74
2023/12/29 05:30:15;;;;;;;;;12.75;10.00;;;;;-143.90;81.92;75540.22;4882520;28;104339;-74
2023/12/29 05:32:42;;;;;;;;;15.50;13.75;;;;;-143.90;82.30;75538.16;4883611;28;102204;-74
2023/12/29 05:35:09;;;;;;;;;16.25;12.50;;;;;-143.90;82.27;75527.81;4869577;28;104247;-75
2023/12/29 05:37:36;;;;;;;;;19.00;12.50;;;;;-143.90;82.27;75515.41;4887210;28;104550;-74
2023/12/29 05:40:03;;;;;;;;;14.00;12.50;;;;;-143.90;82.14;75503.03;4885821;28;103848;-74
2023/12/29 05:42:30;;;;;;;;;13.75;13.00;;;;;-143.90;82.67;75503.03;4883435;28;102348;-75
2023/12/29 05:44:57;;;;;;;;;15.00;12.50;;;;;-143.90;82.66;75490.63;4873924;28;102438;-76
2023/12/29 05:47:23;;;;;;;;;13.75;12.50;;;;;-143.90;84.12;75478.22;4885845;28;102355;-75
2023/12/29 05:49:50;;;;;;;;;12.50;10.50;;;;;-143.90;84.51;75476.13;4882759;28;104165;-76
2023/12/29 05:52:17;;;;;;;;;18.25;15.00;;;;;-143.90;85.18;75480.28;4883940;28;102539;-75
2023/12/29 05:54:44;;;;;;;;;14.75;12.25;;;;;-143.90;86.46;75467.88;4884266;28;102070;-74
2023/12/29 05:57:13;;;;;;;;;10.25;10.25;;;;;-143.90;86.69;75463.72;4880086;28;104837;-73
2023/12/29 05:59:39;;;;;;;;;13.00;10.00;;;;;-143.90;86.09;75453.41;4880404;28;104157;-75
2023/12/29 06:02:06;;;;;;;;;9.25;8.25;;;;;-143.90;85.81;75449.25;4881352;28;102424;-75
2023/12/29 06:04:32;;;;;;;;;10.25;8.25;;;;;-143.90;86.74;75451.31;4879923;28;102074;-74
2023/12/29 06:07:00;;;;;;;;;9.50;8.50;;;;;-143.90;87.78;75449.25;4875316;28;102738;-74
2023/12/29 06:09:26;;;;;;;;;10.00;8.00;;;;;-143.90;88.35;75436.84;4881562;28;103956;-74
2023/12/29 06:11:53;;;;;;;;;10.00;8.75;;;;;-143.90;88.49;75424.44;4867776;28;102369;-75
2023/12/29 06:14:20;;;;;;;;;9.50;8.25;;;;;-143.90;88.33;75420.31;4885682;28;102685;-74
2023/12/29 06:16:47;;;;;;;;;8.50;8.00;;;;;-143.90;87.96;75416.19;4865353;28;102775;-74
2023/12/29 06:19:14;;;;;;;;;11.25;9.50;;;;;-143.90;87.61;75412.03;4883382;28;103780;-75
2023/12/29 06:21:44;;;;;;;;;9.00;8.00;;;;;-143.90;87.65;75407.91;4884181;28;102345;-74
2023/12/29 06:24:11;;;;;;;;;9.75;8.25;;;;;-143.90;87.82;75414.13;4885251;28;101998;-75
2023/12/29 06:26:43;;;;;;;;;10.00;9.00;;;;;-143.90;87.40;75409.97;4888986;28;102476;-74
2023/12/29 06:29:10;;;;;;;;;7.75;7.00;;;;;-143.90;86.97;75401.72;4875536;28;108923;-75
2023/12/29 06:31:41;;;;;;;;;8.25;7.00;;;;;-143.90;87.13;75401.72;4883579;28;102664;-74
2023/12/29 06:34:09;;;;;;;;;10.25;7.25;;;;;-143.90;86.76;75403.78;4883993;28;103418;-75
2023/12/29 06:36:35;;;;;;;;;10.75;8.25;;;;;-143.90;86.81;75403.78;4883920;28;102009;-75
2023/12/29 06:39:02;;;;;;;;;7.00;7.00;;;;;-143.90;86.88;75399.63;4874118;28;104006;-75
2023/12/29 06:41:29;;;;;;;;;9.75;9.00;;;;;-143.90;87.23;75399.63;4881081;28;102163;-75
2023/12/29 06:43:55;;;;;;;;;10.00;7.25;;;;;-143.90;86.96;75387.22;4884375;28;102157;-75
2023/12/29 06:46:22;;;;;;;;;7.25;7.25;;;;;-143.90;86.97;75395.50;4885999;28;102309;-75
2023/12/29 06:48:49;;;;;;;;;9.25;8.25;;;;;-143.90;86.59;75399.63;4866213;28;104036;-75
2023/12/29 06:51:18;;;;;;;;;10.75;10.00;;;;;-143.90;86.97;75412.03;4880003;28;102729;-74
2023/12/29 06:53:47;;;;;;;;;7.75;7.00;;;;;-143.90;87.33;75420.31;4885701;28;102483;-75
2023/12/29 06:56:15;;;;;;;;;10.75;9.50;;;;;-143.90;87.76;75428.59;4891236;28;102491;-76
2023/12/29 06:58:42;;;;;;;;;11.25;10.00;;;;;-143.90;87.79;75434.78;4894426;28;108834;-74
2023/12/29 07:01:08;;;;;;;;;8.00;7.75;;;;;-143.90;87.54;75443.06;4880589;28;103133;-74
2023/12/29 07:03:36;;;;;;;;;7.50;7.50;;;;;-143.90;87.86;75453.41;4887046;28;102165;-75
2023/12/29 07:06:03;;;;;;;;;9.00;8.00;;;;;-143.90;88.47;75455.47;4894736;28;102148;-75
2023/12/29 07:08:29;;;;;;;;;8.75;7.75;;;;;-143.90;88.50;75463.72;4889624;28;104150;-75
2023/12/29 07:10:56;;;;;;;;;8.50;7.00;;;;;-143.90;88.95;75463.72;4879685;28;102595;-73
2023/12/29 07:13:23;;;;;;;;;8.00;6.75;;;;;-143.90;88.85;75463.72;4888924;28;102807;-74
2023/12/29 07:15:50;;;;;;;;;7.75;6.00;;;;;-143.90;88.71;75449.25;4878329;28;102539;-74
2023/12/29 07:18:16;;;;;;;;;16.00;13.25;;;;;-143.90;89.52;75472.00;4894734;28;104616;-73
2023/12/29 07:20:43;;;;;;;;;10.75;9.75;;;;;-143.90;89.82;75469.94;4893447;28;102721;-76
2023/12/29 07:23:10;;;;;;;;;12.00;10.50;;;;;-143.90;89.50;75463.72;4878439;28;105862;-74
2023/12/29 07:25:36;;;;;;;;;7.50;6.75;;;;;-143.90;89.38;75461.66;4888334;28;102084;-74
2023/12/29 07:28:03;;;;;;;;;11.25;9.00;;;;;-143.90;89.49;75465.81;4889285;28;103135;-75
2023/12/29 07:30:31;;;;;;;;;9.50;7.00;;;;;-143.90;88.49;75453.41;4885740;28;102331;-75
2023/12/29 07:32:57;;;;;;;;;7.50;7.25;;;;;-143.90;88.51;75451.31;4861648;28;102089;-74
2023/12/29 07:35:24;;;;;;;;;8.00;8.00;;;;;-143.90;87.77;75443.06;4885753;28;102371;-74
2023/12/29 07:37:51;;;;;;;;;10.00;8.50;;;;;-143.90;87.36;75432.72;4871422;28;104283;-74
2023/12/29 07:40:17;;;;;;;;;9.25;7.00;;;;;-143.90;87.06;75428.59;4892932;28;102548;-74
2023/12/29 07:42:46;;;;;;;;;13.75;8.00;;;;;-143.90;86.42;75420.31;4894725;28;102754;-74
2023/12/29 07:45:14;;;;;;;;;9.50;7.50;;;;;-143.90;85.79;75412.03;4886388;28;104272;-75
2023/12/29 07:47:40;;;;;;;;;9.25;8.75;;;;;-143.90;85.58;75403.78;4889863;28;104181;-73
2023/12/29 07:50:07;;;;;;;;;11.25;9.75;;;;;-143.90;85.37;75397.56;4892231;28;102008;-73
2023/12/29 07:52:34;;;;;;;;;9.00;9.00;;;;;-143.90;85.03;75397.56;4890341;28;103511;-74
2023/12/29 07:55:01;;;;;;;;;13.00;10.25;;;;;-143.90;84.51;75391.38;4876046;28;102283;-74
2023/12/29 07:57:27;;;;;;;;;13.75;8.25;;;;;-143.90;83.63;75395.50;4886880;28;104067;-74
2023/12/29 07:59:54;;;;;;;;;12.75;8.25;;;;;-143.90;83.38;75381.03;4885543;28;101872;-75
2023/12/29 08:02:21;;;;;;;;;8.25;8.00;;;;;-143.90;82.98;75385.16;4884576;28;103939;-75
2023/12/29 08:04:48;;;;;;;;;7.75;7.25;;;;;-143.90;82.34;75370.69;4881770;28;102452;-76
2023/12/29 08:07:15;;;;;;;;;9.00;8.00;;;;;-143.90;81.66;75368.63;4885035;28;104300;-75
2023/12/29 08:09:42;;;;;;;;;9.00;8.00;;;;;-143.90;81.21;75362.44;4886910;28;102915;-74
2023/12/29 08:12:09;;;;;;;;;9.75;9.25;;;;;-143.90;81.43;75364.50;4891401;28;103922;-74
2023/12/29 08:14:35;;;;;;;;;11.00;9.25;;;;;-143.90;80.84;75358.28;4883746;28;103061;-75
2023/12/29 08:17:02;;;;;;;;;9.00;7.25;;;;;-143.90;80.97;75343.81;4878425;28;104143;-75
2023/12/29 08:19:28;;;;;;;;;7.25;7.25;;;;;-143.90;80.42;75333.47;4886518;28;102294;-74
2023/12/29 08:21:56;;;;;;;;;5.75;4.75;;;;;-143.90;80.11;75339.69;4870646;28;102333;-74
2023/12/29 08:24:23;;;;;;;;;9.00;8.00;;;;;-143.90;79.62;75325.22;4886318;28;102068;-75
2023/12/29 08:26:49;;;;;;;;;13.00;8.00;;;;;-143.90;78.75;75321.06;4882946;28;104341;-74
2023/12/29 08:29:17;;;;;;;;;9.00;7.25;;;;;-143.90;78.89;75312.81;4882456;28;103583;-73
2023/12/29 08:31:44;;;;;;;;;9.25;8.00;;;;;-143.90;78.37;75316.94;4886357;28;102539;-74
2023/12/29 08:34:12;;;;;;;;;7.75;7.50;;;;;-143.90;77.49;75298.34;4881908;28;103196;-73
2023/12/29 08:36:39;;;;;;;;;9.00;7.75;;;;;-143.90;77.28;75304.53;4885273;28;104506;-74
2023/12/29 08:39:05;;;;;;;;;10.00;8.75;;;;;-143.90;76.44;75298.34;4881594;28;102059;-74
2023/12/29 08:41:32;;;;;;;;;12.50;9.50;;;;;-143.90;75.24;75308.66;4885653;28;102490;-74
2023/12/29 08:43:59;;;;;;;;;9.50;9.00;;;;;-143.90;75.96;75296.25;4887243;28;102024;-74
2023/12/29 08:46:25;;;;;;;;;9.25;8.00;;;;;-143.90;75.00;75275.59;4894748;28;104289;-74
2023/12/29 08:48:52;;;;;;;;;11.50;9.25;;;;;-143.90;74.99;75277.66;4880585;28;102395;-74
2023/12/29 08:51:19;;;;;;;;;14.25;11.25;;;;;-143.90;75.04;75277.66;4885856;28;102411;-75
2023/12/29 08:53:46;;;;;;;;;9.00;8.25;;;;;-143.90;73.60;75275.59;4886564;28;102324;-75
2023/12/29 08:56:13;;;;;;;;;8.75;7.50;;;;;-143.90;73.39;75256.97;4872858;28;108525;-73
2023/12/29 08:58:41;;;;;;;;;8.00;7.00;;;;;-143.90;73.05;75256.97;4884003;28;102582;-74
2023/12/29 09:01:08;;;;;;;;;10.00;8.75;;;;;-143.90;72.48;75246.66;4876229;28;104791;-75
2023/12/29 09:03:35;;;;;;;;;9.25;7.50;;;;;-143.90;72.02;75230.09;4883510;28;102386;-75
2023/12/29 09:06:02;;;;;;;;;10.50;10.00;;;;;-143.90;71.69;75225.97;4883554;28;103980;-76
2023/12/29 09:08:29;;;;;;;;;10.25;7.50;;;;;-143.90;72.43;75236.31;4884116;28;102578;-74
2023/12/29 09:10:56;;;;;;;;;7.00;7.00;;;;;-143.90;71.99;75223.91;4874901;28;101962;-75
2023/12/29 09:13:25;;;;;;;;;7.00;6.00;;;;;-143.90;71.23;75215.63;4886157;28;102255;-74
2023/12/29 09:15:51;;;;;;;;;9.00;7.75;;;;;-143.90;70.94;75205.28;4884200;28;103961;-75
2023/12/29 09:18:18;;;;;;;;;8.50;7.50;;;;;-143.90;70.90;75197.03;4884990;28;102560;-75
2023/12/29 09:20:45;;;;;;;;;9.00;8.00;;;;;-143.90;70.48;75180.50;4886848;28;102374;-75
2023/12/29 09:23:12;;;;;;;;;8.25;6.00;;;;;-143.90;70.74;75172.22;4877307;28;102184;-76
2023/12/29 09:25:38;;;;;;;;;9.25;7.00;;;;;-143.90;70.56;75163.94;4883804;28;105917;-76
2023/12/29 09:28:05;;;;;;;;;7.25;5.50;;;;;-143.90;69.88;75155.69;4889775;28;102462;-76
2023/12/29 09:30:32;;;;;;;;;7.25;5.00;;;;;-143.90;69.48;75157.75;4882941;28;102389;-75
2023/12/29 09:32:58;;;;;;;;;7.00;5.00;;;;;-143.90;68.59;75151.53;4875690;28;102309;-74
2023/12/29 09:35:26;;;;;;;;;8.00;7.50;;;;;-143.90;69.36;75139.16;4886829;28;104147;-74
2023/12/29 09:37:52;;;;;;;;;4.50;4.50;;;;;-143.90;68.76;75122.59;4887184;28;102254;-73
2023/12/29 09:40:19;;;;;;;;;8.50;6.50;;;;;-143.90;67.12;75110.19;4884951;28;102085;-74
2023/12/29 09:42:48;;;;;;;;;5.00;5.00;;;;;-143.90;68.04;75106.06;4882579;28;102683;-75
2023/12/29 09:45:23;;;;;;;;;7.25;6.00;;;;;-143.90;68.28;75097.78;4881987;28;103616;-74
2023/12/29 09:47:52;;;;;;;;;9.75;8.00;;;;;-143.90;67.15;75110.19;4880733;28;102343;-74
2023/12/29 09:50:19;;;;;;;;;9.75;7.00;;;;;-143.90;67.64;75104.00;4885445;28;102086;-74
2023/12/29 09:52:50;;;;;;;;;6.00;4.75;;;;;-143.90;66.57;75093.66;4885667;28;102229;-74
2023/12/29 09:55:17;;;;;;;;;6.25;5.00;;;;;-143.90;67.42;75093.66;4876560;28;108827;-75
2023/12/29 09:57:44;;;;;;;;;5.00;5.00;;;;;-143.90;66.29;75079.19;4882388;28;103221;-76
2023/12/29 10:00:12;;;;;;;;;9.25;6.25;;;;;-143.90;66.37;75077.13;4882461;28;102075;-75
2023/12/29 10:02:39;;;;;;;;;4.75;3.25;;;;;-143.90;66.60;75062.66;4855025;28;102552;-74
2023/12/29 10:05:06;;;;;;;;;5.25;4.50;;;;;-143.90;66.60;75070.91;4857062;28;104551;-75
2023/12/29 10:07:37;;;;;;;;;8.00;5.75;;;;;-143.90;66.54;75068.84;4879608;28;102637;-75
2023/12/29 10:10:08;;;;;;;;;8.50;6.00;;;;;-143.90;67.44;75066.78;4883354;28;102139;-75
2023/12/29 10:12:39;;;;;;;;;5.75;5.00;;;;;-143.90;67.87;75068.84;4881370;28;102473;-74
2023/12/29 10:15:20;;;;;;;;;7.50;7.50;;;;;-143.90;66.69;75068.84;4878588;28;104579;-75
2023/12/29 10:17:59;;;;;;;;;5.75;4.00;;;;;-143.90;67.45;75093.66;4881965;28;102478;-74
2023/12/29 10:20:45;;;;;;;;;8.00;7.25;;;;;-143.90;66.44;75089.53;4881467;28;102587;-74
2023/12/29 10:23:35;;;;;;;;;5.75;5.00;;;;;-143.90;66.81;75085.38;4873090;28;102150;-75
2023/12/29 10:26:03;;;;;;;;;7.75;6.25;;;;;-143.90;67.12;75070.91;4867678;28;108926;-77
2023/12/29 10:28:30;;;;;;;;;6.00;6.00;;;;;-143.90;66.86;75066.78;4878003;28;105199;-75
2023/12/29 10:30:57;;;;;;;;;7.00;5.00;;;;;-143.90;66.28;75075.06;4880176;28;102337;-73
2023/12/29 10:33:24;;;;;;;;;5.00;4.00;;;;;-143.90;66.73;75056.44;4883391;28;103287;-74
2023/12/29 10:36:03;;;;;;;;;6.75;6.75;;;;;-143.90;65.95;75058.50;4867403;28;103962;-72
2023/12/29 10:38:30;;;;;;;;;7.00;4.50;;;;;-143.90;66.58;75050.25;4885032;28;102636;-74
2023/12/29 10:41:18;;;;;;;;;7.50;7.25;;;;;-143.90;66.96;75066.78;4882094;28;102501;-74
2023/12/29 10:43:54;;;;;;;;;8.00;6.00;;;;;-143.90;66.87;75060.59;4890929;28;102183;-76
2023/12/29 10:46:21;;;;;;;;;5.50;5.25;;;;;-143.90;67.05;75066.78;4890643;28;108581;-73
2023/12/29 10:48:48;;;;;;;;;6.50;6.50;;;;;-143.90;65.80;75056.44;4888018;28;102414;-74
2023/12/29 10:51:15;;;;;;;;;5.00;4.00;;;;;-143.90;65.85;75058.50;4883366;28;105360;-74
2023/12/29 10:53:56;;;;;;;;;6.50;5.00;;;;;-143.90;65.61;75052.31;4889078;28;103988;-74
2023/12/29 10:56:23;;;;;;;;;8.25;5.00;;;;;-143.90;65.65;75050.25;4887700;28;109788;-75
2023/12/29 10:59:02;;;;;;;;;6.50;6.00;;;;;-143.90;65.97;75058.50;4901767;28;104795;-74
2023/12/29 11:01:30;;;;;;;;;5.00;5.00;;;;;-143.90;65.16;75050.25;4886962;28;102474;-74